EZY75FC EGKK-LCPH
Flight info
| Callsign | EZY75FC |
|---|---|
| Flight time | 3h 56m |
| Altitude | 39000 |
| Route | ODVIK Y311 DVR UL9 KONAN DCT KOK DCT DIK M150 PITES DCT BABEG DCT KUMOM DCT BOSNA DCT NORPI DCT KEB DCT MEDUX UM867 KOGAT DCT ERANA UL737 TSL UN130 MES UL609 RDS UM601 EVENO DCT DASNI M32 TOBAL |
| Aircraft | A20N/M-SDE2E3FGHIRWXY/LB1 |
Departure
| Time | 2026-05-08 14:36 |
|---|---|
| Airport | London Gatwick Airport (EGKK) |
Arrival
| Time | 2026-05-08 18:32 |
|---|---|
| Airport | Paphos International Airport (LCPH) |
| Time | Latitude | Longitude | Altitude | Speed | Heading |
|---|---|---|---|---|---|
| 2026-05-08 13:47 | 51.15565 | -0.17821 | 205 ft | 0 kts | 347° |
| 2026-05-08 14:24 | 51.15563 | -0.17821 | 204 ft | 2 kts | 347° |
| 2026-05-08 14:24 | 51.15540 | -0.17813 | 211 ft | 3 kts | 354° |
| 2026-05-08 14:25 | 51.15517 | -0.17812 | 204 ft | 3 kts | 12° |
| 2026-05-08 14:25 | 51.15497 | -0.17826 | 211 ft | 3 kts | 65° |
| 2026-05-08 14:25 | 51.15495 | -0.17834 | 210 ft | 0 kts | 77° |
| 2026-05-08 14:28 | 51.15498 | -0.17815 | 208 ft | 6 kts | 77° |
| 2026-05-08 14:28 | 51.15517 | -0.17682 | 210 ft | 17 kts | 77° |
| 2026-05-08 14:29 | 51.15538 | -0.17463 | 204 ft | 20 kts | 108° |
| 2026-05-08 14:29 | 51.15475 | -0.17409 | 204 ft | 5 kts | 190° |
| 2026-05-08 14:29 | 51.15428 | -0.17396 | 209 ft | 9 kts | 169° |
| 2026-05-08 14:29 | 51.15353 | -0.17375 | 208 ft | 12 kts | 181° |
| 2026-05-08 14:30 | 51.15301 | -0.17453 | 213 ft | 12 kts | 252° |
| 2026-05-08 14:30 | 51.15282 | -0.17596 | 204 ft | 15 kts | 259° |
| 2026-05-08 14:30 | 51.15257 | -0.17791 | 213 ft | 20 kts | 255° |
| 2026-05-08 14:30 | 51.15222 | -0.18030 | 208 ft | 24 kts | 257° |
| 2026-05-08 14:31 | 51.15184 | -0.18311 | 210 ft | 27 kts | 258° |
| 2026-05-08 14:31 | 51.15146 | -0.18615 | 204 ft | 28 kts | 258° |
| 2026-05-08 14:31 | 51.15089 | -0.18920 | 207 ft | 29 kts | 255° |
| 2026-05-08 14:32 | 51.15015 | -0.19552 | 214 ft | 30 kts | 259° |
| 2026-05-08 14:32 | 51.14978 | -0.19838 | 207 ft | 6 kts | 257° |
| 2026-05-08 14:32 | 51.14967 | -0.19926 | 210 ft | 15 kts | 259° |
| 2026-05-08 14:32 | 51.14941 | -0.20116 | 215 ft | 19 kts | 258° |
| 2026-05-08 14:33 | 51.14911 | -0.20335 | 214 ft | 21 kts | 257° |
| 2026-05-08 14:33 | 51.14877 | -0.20574 | 207 ft | 23 kts | 257° |
| 2026-05-08 14:33 | 51.14843 | -0.20830 | 204 ft | 24 kts | 258° |
| 2026-05-08 14:33 | 51.14805 | -0.21088 | 208 ft | 16 kts | 256° |
| 2026-05-08 14:34 | 51.14780 | -0.21223 | 207 ft | 15 kts | 255° |
| 2026-05-08 14:34 | 51.14759 | -0.21364 | 204 ft | 8 kts | 257° |
| 2026-05-08 14:34 | 51.14713 | -0.21400 | 209 ft | 9 kts | 164° |
| 2026-05-08 14:34 | 51.14641 | -0.21346 | 208 ft | 14 kts | 152° |
| 2026-05-08 14:35 | 51.14536 | -0.21279 | 208 ft | 18 kts | 147° |
| 2026-05-08 14:35 | 51.14530 | -0.21101 | 212 ft | 18 kts | 76° |
| 2026-05-08 14:35 | 51.14598 | -0.20604 | 217 ft | 79 kts | 78° |
| 2026-05-08 14:35 | 51.14758 | -0.19453 | 213 ft | 134 kts | 78° |
| 2026-05-08 14:36 | 51.14985 | -0.17806 | 396 ft | 158 kts | 77° |
| 2026-05-08 14:36 | 51.15237 | -0.16079 | 984 ft | 162 kts | 79° |
| 2026-05-08 14:36 | 51.15494 | -0.14314 | 1641 ft | 166 kts | 81° |
| 2026-05-08 14:36 | 51.15745 | -0.12507 | 2239 ft | 169 kts | 81° |
| 2026-05-08 14:37 | 51.16000 | -0.10606 | 2707 ft | 183 kts | 82° |
| 2026-05-08 14:37 | 51.16267 | -0.08545 | 3235 ft | 197 kts | 82° |
| 2026-05-08 14:37 | 51.16536 | -0.06306 | 3744 ft | 215 kts | 82° |
| 2026-05-08 14:37 | 51.16808 | -0.03858 | 4293 ft | 232 kts | 83° |
| 2026-05-08 14:38 | 51.17082 | -0.01234 | 4933 ft | 248 kts | 83° |
| 2026-05-08 14:38 | 51.17352 | 0.01555 | 5595 ft | 260 kts | 82° |
| 2026-05-08 14:38 | 51.17595 | 0.04480 | 6218 ft | 273 kts | 88° |
| 2026-05-08 14:38 | 51.17443 | 0.07499 | 6074 ft | 279 kts | 100° |
| 2026-05-08 14:39 | 51.17086 | 0.10494 | 5922 ft | 272 kts | 101° |
| 2026-05-08 14:39 | 51.16787 | 0.13483 | 5857 ft | 274 kts | 98° |
| 2026-05-08 14:39 | 51.16598 | 0.16520 | 6163 ft | 277 kts | 94° |
| 2026-05-08 14:39 | 51.16534 | 0.19600 | 6970 ft | 278 kts | 91° |
| 2026-05-08 14:40 | 51.16535 | 0.22700 | 7826 ft | 282 kts | 91° |
| 2026-05-08 14:40 | 51.16554 | 0.25865 | 8634 ft | 288 kts | 91° |
| 2026-05-08 14:40 | 51.16572 | 0.29057 | 9544 ft | 290 kts | 91° |
| 2026-05-08 14:40 | 51.16585 | 0.32289 | 10361 ft | 294 kts | 91° |
| 2026-05-08 14:41 | 51.16593 | 0.35572 | 11117 ft | 298 kts | 91° |
| 2026-05-08 14:41 | 51.16596 | 0.38852 | 11903 ft | 301 kts | 91° |
| 2026-05-08 14:41 | 51.16597 | 0.42245 | 12705 ft | 304 kts | 91° |
| 2026-05-08 14:41 | 51.16597 | 0.45596 | 13459 ft | 309 kts | 91° |
| 2026-05-08 14:42 | 51.16597 | 0.49085 | 14222 ft | 312 kts | 91° |
| 2026-05-08 14:42 | 51.16594 | 0.52622 | 14618 ft | 329 kts | 91° |
| 2026-05-08 14:42 | 51.16592 | 0.56382 | 14810 ft | 349 kts | 91° |
| 2026-05-08 14:42 | 51.16588 | 0.60295 | 15103 ft | 363 kts | 91° |
| 2026-05-08 14:43 | 51.16584 | 0.64338 | 15791 ft | 366 kts | 91° |
| 2026-05-08 14:43 | 51.16578 | 0.68409 | 16463 ft | 369 kts | 91° |
| 2026-05-08 14:43 | 51.16572 | 0.72524 | 17089 ft | 373 kts | 91° |
| 2026-05-08 14:43 | 51.16562 | 0.76678 | 17770 ft | 376 kts | 91° |
| 2026-05-08 14:44 | 51.16551 | 0.80877 | 18394 ft | 380 kts | 91° |
| 2026-05-08 14:44 | 51.16538 | 0.85109 | 18925 ft | 384 kts | 91° |
| 2026-05-08 14:44 | 51.16523 | 0.89399 | 19460 ft | 388 kts | 91° |
| 2026-05-08 14:44 | 51.16509 | 0.93674 | 19941 ft | 394 kts | 90° |
| 2026-05-08 14:45 | 51.16491 | 0.98068 | 20468 ft | 397 kts | 90° |
| 2026-05-08 14:45 | 51.16470 | 1.02488 | 21049 ft | 400 kts | 90° |
| 2026-05-08 14:45 | 51.16447 | 1.06949 | 21510 ft | 405 kts | 90° |
| 2026-05-08 14:45 | 51.16423 | 1.11458 | 22051 ft | 408 kts | 90° |
| 2026-05-08 14:46 | 51.16396 | 1.15954 | 22619 ft | 399 kts | 90° |
| 2026-05-08 14:46 | 51.16367 | 1.20402 | 22701 ft | 401 kts | 90° |
| 2026-05-08 14:46 | 51.16337 | 1.24924 | 22867 ft | 412 kts | 90° |
| 2026-05-08 14:46 | 51.16305 | 1.29501 | 23401 ft | 415 kts | 90° |
| 2026-05-08 14:47 | 51.16271 | 1.34128 | 23842 ft | 419 kts | 90° |
| 2026-05-08 14:47 | 51.16122 | 1.38764 | 24314 ft | 421 kts | 94° |
| 2026-05-08 14:47 | 51.15890 | 1.43453 | 24729 ft | 424 kts | 93° |
| 2026-05-08 14:47 | 51.15670 | 1.48096 | 25179 ft | 426 kts | 93° |
| 2026-05-08 14:48 | 51.15447 | 1.52809 | 25613 ft | 428 kts | 93° |
| 2026-05-08 14:48 | 51.15220 | 1.57556 | 25944 ft | 433 kts | 93° |
| 2026-05-08 14:48 | 51.14984 | 1.62405 | 26071 ft | 443 kts | 93° |
| 2026-05-08 14:48 | 51.14741 | 1.67364 | 26087 ft | 455 kts | 93° |
| 2026-05-08 14:49 | 51.14487 | 1.72457 | 26090 ft | 466 kts | 93° |
| 2026-05-08 14:49 | 51.14226 | 1.77660 | 26089 ft | 477 kts | 93° |
| 2026-05-08 14:49 | 51.13956 | 1.82977 | 26087 ft | 487 kts | 93° |
| 2026-05-08 14:49 | 51.13678 | 1.88394 | 26079 ft | 495 kts | 93° |
| 2026-05-08 14:50 | 51.13393 | 1.93893 | 26079 ft | 500 kts | 93° |
| 2026-05-08 14:50 | 51.13107 | 1.99349 | 26078 ft | 503 kts | 93° |
| 2026-05-08 14:50 | 51.12813 | 2.04922 | 26079 ft | 506 kts | 94° |
| 2026-05-08 14:50 | 51.12515 | 2.10513 | 26079 ft | 507 kts | 94° |
| 2026-05-08 14:51 | 51.12215 | 2.16108 | 26082 ft | 508 kts | 94° |
| 2026-05-08 14:51 | 51.11910 | 2.21727 | 26082 ft | 509 kts | 94° |
| 2026-05-08 14:51 | 51.11604 | 2.27321 | 26085 ft | 500 kts | 94° |
| 2026-05-08 14:51 | 51.11306 | 2.32701 | 26084 ft | 476 kts | 94° |
| 2026-05-08 14:52 | 51.11020 | 2.37828 | 26089 ft | 455 kts | 94° |
| 2026-05-08 14:52 | 51.10482 | 2.47466 | 26081 ft | 423 kts | 94° |
| 2026-05-08 14:52 | 51.10221 | 2.52118 | 26081 ft | 431 kts | 94° |
| 2026-05-08 14:53 | 51.09949 | 2.56898 | 26083 ft | 432 kts | 94° |
| 2026-05-08 14:53 | 51.09579 | 2.61631 | 26083 ft | 432 kts | 100° |
| 2026-05-08 14:53 | 51.08814 | 2.66256 | 26080 ft | 433 kts | 108° |
| 2026-05-08 14:53 | 51.07655 | 2.70670 | 26081 ft | 433 kts | 116° |
| 2026-05-08 14:54 | 51.06237 | 2.74902 | 26080 ft | 433 kts | 117° |
| 2026-05-08 14:54 | 51.04819 | 2.79139 | 26081 ft | 433 kts | 117° |
| 2026-05-08 14:54 | 51.03406 | 2.83385 | 26192 ft | 436 kts | 117° |
| 2026-05-08 14:54 | 51.02006 | 2.87603 | 26705 ft | 436 kts | 117° |
| 2026-05-08 14:55 | 51.00587 | 2.91869 | 27093 ft | 439 kts | 118° |
| 2026-05-08 14:55 | 50.99147 | 2.96174 | 27429 ft | 442 kts | 118° |
| 2026-05-08 14:55 | 50.97696 | 3.00499 | 27792 ft | 445 kts | 118° |
| 2026-05-08 14:55 | 50.96237 | 3.04844 | 28140 ft | 447 kts | 118° |
| 2026-05-08 14:56 | 50.94767 | 3.09210 | 28477 ft | 450 kts | 118° |
| 2026-05-08 14:56 | 50.93288 | 3.13598 | 28793 ft | 453 kts | 118° |
| 2026-05-08 14:56 | 50.91795 | 3.18020 | 29104 ft | 455 kts | 118° |
| 2026-05-08 14:56 | 50.90298 | 3.22449 | 29406 ft | 457 kts | 117° |
| 2026-05-08 14:57 | 50.88787 | 3.26907 | 29705 ft | 460 kts | 117° |
| 2026-05-08 14:57 | 50.87272 | 3.31375 | 30075 ft | 460 kts | 118° |
| 2026-05-08 14:57 | 50.85758 | 3.35834 | 30456 ft | 460 kts | 118° |
| 2026-05-08 14:57 | 50.84230 | 3.40320 | 30675 ft | 463 kts | 118° |
| 2026-05-08 14:58 | 50.82696 | 3.44814 | 30927 ft | 466 kts | 118° |
| 2026-05-08 14:58 | 50.81169 | 3.49280 | 31175 ft | 468 kts | 118° |
| 2026-05-08 14:58 | 50.79619 | 3.53806 | 31490 ft | 468 kts | 118° |
| 2026-05-08 14:58 | 50.78064 | 3.58338 | 31831 ft | 468 kts | 118° |
| 2026-05-08 14:59 | 50.76508 | 3.62865 | 32156 ft | 468 kts | 118° |
| 2026-05-08 14:59 | 50.73394 | 3.71901 | 32802 ft | 468 kts | 118° |
| 2026-05-08 14:59 | 50.71839 | 3.76408 | 33150 ft | 467 kts | 118° |
| 2026-05-08 15:00 | 50.70287 | 3.80897 | 33544 ft | 465 kts | 119° |
| 2026-05-08 15:00 | 50.68735 | 3.85376 | 33819 ft | 466 kts | 119° |
| 2026-05-08 15:00 | 50.67183 | 3.89842 | 34092 ft | 466 kts | 119° |
| 2026-05-08 15:00 | 50.65615 | 3.94345 | 34320 ft | 466 kts | 119° |
| 2026-05-08 15:01 | 50.64052 | 3.98827 | 34534 ft | 466 kts | 119° |
| 2026-05-08 15:01 | 50.62491 | 4.03299 | 34759 ft | 466 kts | 119° |
| 2026-05-08 15:01 | 50.60925 | 4.07776 | 34954 ft | 466 kts | 119° |
| 2026-05-08 15:01 | 50.59358 | 4.12247 | 35166 ft | 467 kts | 119° |
| 2026-05-08 15:02 | 50.57807 | 4.16665 | 35351 ft | 467 kts | 119° |
| 2026-05-08 15:02 | 50.56230 | 4.21152 | 35517 ft | 468 kts | 120° |
| 2026-05-08 15:02 | 50.54651 | 4.25635 | 35695 ft | 468 kts | 120° |
| 2026-05-08 15:02 | 50.53073 | 4.30108 | 35877 ft | 468 kts | 120° |
| 2026-05-08 15:03 | 50.51489 | 4.34589 | 36060 ft | 468 kts | 120° |
| 2026-05-08 15:03 | 50.49903 | 4.39068 | 36230 ft | 469 kts | 120° |
| 2026-05-08 15:03 | 50.48315 | 4.43544 | 36401 ft | 469 kts | 120° |
| 2026-05-08 15:03 | 50.46727 | 4.48014 | 36564 ft | 469 kts | 120° |
| 2026-05-08 15:04 | 50.45135 | 4.52485 | 36729 ft | 469 kts | 120° |
| 2026-05-08 15:04 | 50.43560 | 4.56901 | 36886 ft | 470 kts | 120° |
| 2026-05-08 15:04 | 50.41962 | 4.61375 | 37040 ft | 470 kts | 120° |
| 2026-05-08 15:04 | 50.40363 | 4.65846 | 37210 ft | 469 kts | 120° |
| 2026-05-08 15:05 | 50.38764 | 4.70308 | 37371 ft | 469 kts | 120° |
| 2026-05-08 15:05 | 50.37164 | 4.74763 | 37509 ft | 470 kts | 121° |
| 2026-05-08 15:05 | 50.35561 | 4.79219 | 37643 ft | 470 kts | 121° |
| 2026-05-08 15:05 | 50.33954 | 4.83679 | 37768 ft | 470 kts | 121° |
| 2026-05-08 15:06 | 50.31279 | 4.91082 | 37962 ft | 470 kts | 121° |
| 2026-05-08 15:06 | 50.29663 | 4.95549 | 38088 ft | 471 kts | 121° |
| 2026-05-08 15:06 | 50.27519 | 5.01457 | 38245 ft | 471 kts | 121° |
| 2026-05-08 15:07 | 50.24825 | 5.08866 | 38445 ft | 470 kts | 121° |
| 2026-05-08 15:07 | 50.23208 | 5.13303 | 38581 ft | 470 kts | 121° |
| 2026-05-08 15:07 | 50.21583 | 5.17751 | 38688 ft | 470 kts | 121° |
| 2026-05-08 15:08 | 50.18339 | 5.26612 | 38843 ft | 470 kts | 121° |
| 2026-05-08 15:08 | 50.15084 | 5.35472 | 39001 ft | 470 kts | 121° |
| 2026-05-08 15:09 | 50.11819 | 5.44330 | 39071 ft | 470 kts | 121° |
| 2026-05-08 15:09 | 50.08558 | 5.53146 | 39067 ft | 470 kts | 121° |
| 2026-05-08 15:10 | 50.05299 | 5.61926 | 39064 ft | 470 kts | 121° |
| 2026-05-08 15:10 | 50.02019 | 5.70733 | 39067 ft | 470 kts | 121° |
| 2026-05-08 15:11 | 49.98737 | 5.79515 | 39064 ft | 470 kts | 122° |
| 2026-05-08 15:11 | 49.95445 | 5.88294 | 39064 ft | 470 kts | 122° |
| 2026-05-08 15:12 | 49.92145 | 5.97067 | 39061 ft | 470 kts | 122° |
| 2026-05-08 15:12 | 49.88865 | 6.05761 | 39062 ft | 470 kts | 122° |
| 2026-05-08 15:13 | 49.85560 | 6.14520 | 39062 ft | 470 kts | 121° |
| 2026-05-08 15:13 | 49.82497 | 6.23481 | 39065 ft | 470 kts | 118° |
| 2026-05-08 15:14 | 49.79493 | 6.32487 | 39061 ft | 470 kts | 119° |
| 2026-05-08 15:14 | 49.76468 | 6.41401 | 39066 ft | 470 kts | 119° |
| 2026-05-08 15:15 | 49.73405 | 6.50348 | 39066 ft | 471 kts | 119° |
| 2026-05-08 15:15 | 49.70436 | 6.59362 | 39066 ft | 471 kts | 117° |
| 2026-05-08 15:16 | 49.67586 | 6.68503 | 39066 ft | 472 kts | 117° |
| 2026-05-08 15:16 | 49.64710 | 6.77627 | 39067 ft | 472 kts | 117° |
| 2026-05-08 15:17 | 49.61814 | 6.86715 | 39071 ft | 472 kts | 117° |
| 2026-05-08 15:17 | 49.58924 | 6.95734 | 39075 ft | 472 kts | 117° |
| 2026-05-08 15:18 | 49.56008 | 7.04800 | 39073 ft | 472 kts | 118° |
| 2026-05-08 15:18 | 49.53082 | 7.13865 | 39070 ft | 472 kts | 118° |
| 2026-05-08 15:19 | 49.50151 | 7.22916 | 39068 ft | 472 kts | 118° |
| 2026-05-08 15:19 | 49.47213 | 7.31952 | 39069 ft | 472 kts | 118° |
| 2026-05-08 15:20 | 49.44291 | 7.40911 | 39065 ft | 472 kts | 118° |
| 2026-05-08 15:20 | 49.41325 | 7.49968 | 39067 ft | 471 kts | 118° |
| 2026-05-08 15:21 | 49.38390 | 7.58902 | 39056 ft | 471 kts | 118° |
| 2026-05-08 15:21 | 49.35428 | 7.67885 | 39054 ft | 471 kts | 118° |
| 2026-05-08 15:22 | 49.32463 | 7.76843 | 39057 ft | 471 kts | 118° |
| 2026-05-08 15:22 | 49.29488 | 7.85801 | 39057 ft | 471 kts | 118° |
| 2026-05-08 15:23 | 49.26529 | 7.94681 | 39054 ft | 471 kts | 118° |
| 2026-05-08 15:23 | 49.23546 | 8.03602 | 39053 ft | 471 kts | 119° |
| 2026-05-08 15:24 | 49.20551 | 8.12528 | 39053 ft | 471 kts | 119° |
| 2026-05-08 15:24 | 49.17550 | 8.21439 | 39052 ft | 471 kts | 119° |
| 2026-05-08 15:25 | 49.14566 | 8.30268 | 39054 ft | 471 kts | 119° |
| 2026-05-08 15:25 | 49.11555 | 8.39144 | 39047 ft | 471 kts | 119° |
| 2026-05-08 15:26 | 49.08535 | 8.48021 | 39049 ft | 471 kts | 119° |
| 2026-05-08 15:26 | 49.05509 | 8.56881 | 39047 ft | 471 kts | 119° |
| 2026-05-08 15:27 | 49.02479 | 8.65725 | 39048 ft | 471 kts | 119° |
| 2026-05-08 15:27 | 48.99454 | 8.74521 | 39050 ft | 471 kts | 119° |
| 2026-05-08 15:28 | 48.96406 | 8.83355 | 39038 ft | 471 kts | 120° |
| 2026-05-08 15:28 | 48.93352 | 8.92178 | 39043 ft | 471 kts | 120° |
| 2026-05-08 15:29 | 48.90287 | 9.01001 | 39041 ft | 472 kts | 120° |
| 2026-05-08 15:29 | 48.87213 | 9.09820 | 39044 ft | 472 kts | 120° |
| 2026-05-08 15:30 | 48.84137 | 9.18614 | 39049 ft | 472 kts | 120° |
| 2026-05-08 15:30 | 48.81050 | 9.27408 | 39049 ft | 472 kts | 120° |
| 2026-05-08 15:31 | 48.77954 | 9.36202 | 39048 ft | 472 kts | 120° |
| 2026-05-08 15:31 | 48.74866 | 9.44939 | 39037 ft | 472 kts | 120° |
| 2026-05-08 15:32 | 48.71756 | 9.53712 | 39040 ft | 472 kts | 120° |
| 2026-05-08 15:32 | 48.68645 | 9.62467 | 39042 ft | 472 kts | 120° |
| 2026-05-08 15:33 | 48.65386 | 9.71085 | 39044 ft | 471 kts | 123° |
| 2026-05-08 15:33 | 48.62058 | 9.79560 | 39051 ft | 472 kts | 123° |
| 2026-05-08 15:34 | 48.58706 | 9.88117 | 39057 ft | 472 kts | 123° |
| 2026-05-08 15:34 | 48.55346 | 9.96635 | 39066 ft | 472 kts | 123° |
| 2026-05-08 15:35 | 48.51978 | 10.05137 | 39060 ft | 472 kts | 123° |
| 2026-05-08 15:35 | 48.48605 | 10.13619 | 39063 ft | 471 kts | 123° |
| 2026-05-08 15:36 | 48.45797 | 10.20660 | 39060 ft | 471 kts | 123° |
| 2026-05-08 15:36 | 48.41865 | 10.30489 | 39060 ft | 471 kts | 123° |
| 2026-05-08 15:37 | 48.38474 | 10.38939 | 39065 ft | 470 kts | 123° |
| 2026-05-08 15:37 | 48.35086 | 10.47353 | 39063 ft | 470 kts | 123° |
| 2026-05-08 15:38 | 48.31689 | 10.55763 | 39052 ft | 470 kts | 124° |
| 2026-05-08 15:38 | 48.28317 | 10.64085 | 39048 ft | 470 kts | 124° |
| 2026-05-08 15:39 | 48.24912 | 10.72462 | 39045 ft | 470 kts | 124° |
| 2026-05-08 15:39 | 48.21503 | 10.80826 | 39042 ft | 469 kts | 124° |
| 2026-05-08 15:40 | 48.18085 | 10.89184 | 39042 ft | 469 kts | 124° |
| 2026-05-08 15:40 | 48.14662 | 10.97526 | 39042 ft | 469 kts | 124° |
| 2026-05-08 15:41 | 48.11260 | 11.05793 | 39037 ft | 469 kts | 124° |
| 2026-05-08 15:41 | 48.07830 | 11.14103 | 39038 ft | 469 kts | 124° |
| 2026-05-08 15:42 | 48.04396 | 11.22397 | 39047 ft | 470 kts | 124° |
| 2026-05-08 15:42 | 48.00946 | 11.30703 | 39044 ft | 470 kts | 124° |
| 2026-05-08 15:43 | 47.97490 | 11.38998 | 39045 ft | 470 kts | 124° |
| 2026-05-08 15:43 | 47.94026 | 11.47288 | 39046 ft | 471 kts | 124° |
| 2026-05-08 15:44 | 47.90553 | 11.55574 | 39043 ft | 471 kts | 125° |
| 2026-05-08 15:44 | 47.87071 | 11.63855 | 39040 ft | 472 kts | 125° |
| 2026-05-08 15:45 | 47.83598 | 11.72090 | 39028 ft | 472 kts | 125° |
| 2026-05-08 15:45 | 47.80094 | 11.80376 | 39036 ft | 472 kts | 125° |
| 2026-05-08 15:46 | 47.76583 | 11.88650 | 39032 ft | 472 kts | 125° |
| 2026-05-08 15:46 | 47.73070 | 11.96902 | 39038 ft | 473 kts | 125° |
| 2026-05-08 15:47 | 47.69548 | 12.05154 | 39039 ft | 473 kts | 125° |
| 2026-05-08 15:47 | 47.66040 | 12.13347 | 39042 ft | 473 kts | 125° |
| 2026-05-08 15:48 | 47.60737 | 12.25684 | 39040 ft | 473 kts | 125° |
| 2026-05-08 15:49 | 47.57194 | 12.33904 | 39038 ft | 473 kts | 125° |
| 2026-05-08 15:49 | 47.53350 | 12.41724 | 39039 ft | 469 kts | 132° |
| 2026-05-08 15:50 | 47.49263 | 12.49265 | 39038 ft | 470 kts | 131° |
| 2026-05-08 15:50 | 47.45197 | 12.56819 | 39041 ft | 470 kts | 131° |
| 2026-05-08 15:51 | 47.41186 | 12.64261 | 39047 ft | 469 kts | 131° |
| 2026-05-08 15:51 | 47.37103 | 12.71815 | 39055 ft | 472 kts | 131° |
| 2026-05-08 15:52 | 47.33701 | 12.78086 | 39047 ft | 469 kts | 131° |
| 2026-05-08 15:52 | 47.28949 | 12.86812 | 39050 ft | 470 kts | 132° |
| 2026-05-08 15:53 | 47.25544 | 12.93047 | 39038 ft | 468 kts | 132° |
| 2026-05-08 15:53 | 47.21461 | 13.00505 | 39051 ft | 469 kts | 132° |
| 2026-05-08 15:54 | 47.17357 | 13.07981 | 39057 ft | 469 kts | 132° |
| 2026-05-08 15:54 | 47.13263 | 13.15420 | 39054 ft | 468 kts | 132° |
| 2026-05-08 15:55 | 47.09220 | 13.22749 | 39057 ft | 466 kts | 132° |
| 2026-05-08 15:55 | 47.03065 | 13.33864 | 39046 ft | 469 kts | 132° |
| 2026-05-08 15:56 | 46.98955 | 13.41260 | 39048 ft | 468 kts | 133° |
| 2026-05-08 15:56 | 46.94861 | 13.48608 | 39050 ft | 467 kts | 132° |
| 2026-05-08 15:57 | 46.90756 | 13.55960 | 39026 ft | 465 kts | 133° |
| 2026-05-08 15:57 | 46.86666 | 13.63264 | 39019 ft | 464 kts | 133° |
| 2026-05-08 15:58 | 46.82565 | 13.70565 | 39044 ft | 466 kts | 133° |
| 2026-05-08 15:58 | 46.78432 | 13.77904 | 39044 ft | 468 kts | 133° |
| 2026-05-08 15:59 | 46.74290 | 13.85241 | 39027 ft | 468 kts | 133° |
| 2026-05-08 15:59 | 46.70178 | 13.92506 | 39028 ft | 466 kts | 133° |
| 2026-05-08 16:00 | 46.66052 | 13.99777 | 39032 ft | 466 kts | 133° |
| 2026-05-08 16:00 | 46.61908 | 14.07056 | 39032 ft | 468 kts | 133° |
| 2026-05-08 16:01 | 46.57755 | 14.14336 | 39024 ft | 466 kts | 133° |
| 2026-05-08 16:01 | 46.53610 | 14.21581 | 39020 ft | 466 kts | 133° |
| 2026-05-08 16:02 | 46.49461 | 14.28815 | 39021 ft | 466 kts | 134° |
| 2026-05-08 16:02 | 46.45335 | 14.35989 | 39020 ft | 465 kts | 134° |
| 2026-05-08 16:03 | 46.41178 | 14.43198 | 39024 ft | 466 kts | 134° |
| 2026-05-08 16:03 | 46.37022 | 14.50389 | 39022 ft | 466 kts | 134° |
| 2026-05-08 16:04 | 46.32856 | 14.57576 | 39002 ft | 465 kts | 134° |
| 2026-05-08 16:04 | 46.28693 | 14.64740 | 39015 ft | 465 kts | 134° |
| 2026-05-08 16:05 | 46.24539 | 14.71869 | 39027 ft | 466 kts | 134° |
| 2026-05-08 16:05 | 46.20353 | 14.79034 | 39028 ft | 466 kts | 134° |
| 2026-05-08 16:06 | 46.16176 | 14.86169 | 39029 ft | 464 kts | 134° |
| 2026-05-08 16:06 | 46.11989 | 14.93299 | 39037 ft | 467 kts | 134° |
| 2026-05-08 16:07 | 46.07808 | 15.00400 | 39034 ft | 466 kts | 134° |
| 2026-05-08 16:07 | 46.03611 | 15.07513 | 39047 ft | 466 kts | 134° |
| 2026-05-08 16:08 | 45.99398 | 15.14633 | 39042 ft | 466 kts | 134° |
| 2026-05-08 16:08 | 45.95216 | 15.21683 | 39030 ft | 466 kts | 134° |
| 2026-05-08 16:09 | 45.91001 | 15.28770 | 39023 ft | 466 kts | 134° |
| 2026-05-08 16:09 | 45.86778 | 15.35852 | 39021 ft | 466 kts | 134° |
| 2026-05-08 16:10 | 45.82558 | 15.42911 | 39025 ft | 466 kts | 134° |
| 2026-05-08 16:10 | 45.78331 | 15.49963 | 39026 ft | 466 kts | 135° |
| 2026-05-08 16:11 | 45.74099 | 15.57008 | 39026 ft | 466 kts | 135° |
| 2026-05-08 16:11 | 45.69858 | 15.64048 | 39042 ft | 466 kts | 135° |
| 2026-05-08 16:12 | 45.65617 | 15.71070 | 39042 ft | 466 kts | 135° |
| 2026-05-08 16:12 | 45.61397 | 15.78041 | 39042 ft | 466 kts | 135° |
| 2026-05-08 16:13 | 45.57145 | 15.85047 | 39037 ft | 466 kts | 135° |
| 2026-05-08 16:13 | 45.52885 | 15.92048 | 39038 ft | 467 kts | 135° |
| 2026-05-08 16:14 | 45.48623 | 15.99035 | 39040 ft | 467 kts | 135° |
| 2026-05-08 16:14 | 45.44379 | 16.05974 | 39043 ft | 467 kts | 135° |
| 2026-05-08 16:15 | 45.40107 | 16.12943 | 39047 ft | 467 kts | 135° |
| 2026-05-08 16:15 | 45.35832 | 16.19897 | 39047 ft | 467 kts | 135° |
| 2026-05-08 16:16 | 45.31552 | 16.26844 | 39049 ft | 467 kts | 135° |
| 2026-05-08 16:16 | 45.27267 | 16.33781 | 39047 ft | 467 kts | 135° |
| 2026-05-08 16:17 | 45.23701 | 16.39543 | 39038 ft | 466 kts | 135° |
| 2026-05-08 16:17 | 45.18737 | 16.47540 | 39037 ft | 463 kts | 135° |
| 2026-05-08 16:18 | 45.14461 | 16.54412 | 39032 ft | 465 kts | 135° |
| 2026-05-08 16:18 | 45.10164 | 16.61299 | 39037 ft | 466 kts | 135° |
| 2026-05-08 16:19 | 45.05870 | 16.68166 | 39032 ft | 465 kts | 135° |
| 2026-05-08 16:19 | 45.01581 | 16.75008 | 39027 ft | 464 kts | 135° |
| 2026-05-08 16:20 | 44.97328 | 16.81776 | 39023 ft | 463 kts | 135° |
| 2026-05-08 16:20 | 44.93052 | 16.88564 | 39014 ft | 462 kts | 135° |
| 2026-05-08 16:21 | 44.88769 | 16.95346 | 39005 ft | 462 kts | 135° |
| 2026-05-08 16:21 | 44.84492 | 17.02101 | 38997 ft | 462 kts | 135° |
| 2026-05-08 16:22 | 44.80207 | 17.08853 | 38998 ft | 462 kts | 135° |
| 2026-05-08 16:22 | 44.75916 | 17.15599 | 39000 ft | 462 kts | 135° |
| 2026-05-08 16:23 | 44.71622 | 17.22334 | 39002 ft | 462 kts | 135° |
| 2026-05-08 16:23 | 44.67340 | 17.29034 | 39023 ft | 463 kts | 135° |
| 2026-05-08 16:24 | 44.63027 | 17.35765 | 39025 ft | 464 kts | 135° |
| 2026-05-08 16:24 | 44.58701 | 17.42500 | 39040 ft | 465 kts | 135° |
| 2026-05-08 16:25 | 44.54368 | 17.49231 | 39043 ft | 465 kts | 135° |
| 2026-05-08 16:25 | 44.50023 | 17.55967 | 39022 ft | 465 kts | 135° |
| 2026-05-08 16:26 | 44.45699 | 17.62660 | 39035 ft | 462 kts | 135° |
| 2026-05-08 16:26 | 44.41370 | 17.69346 | 39026 ft | 463 kts | 135° |
| 2026-05-08 16:27 | 44.37066 | 17.75979 | 39031 ft | 463 kts | 135° |
| 2026-05-08 16:27 | 44.32791 | 17.82729 | 39014 ft | 463 kts | 134° |
| 2026-05-08 16:28 | 44.28555 | 17.89521 | 39018 ft | 463 kts | 134° |
| 2026-05-08 16:28 | 44.24303 | 17.96302 | 39026 ft | 463 kts | 134° |
| 2026-05-08 16:29 | 44.20071 | 18.03023 | 39023 ft | 464 kts | 134° |
| 2026-05-08 16:29 | 44.15798 | 18.09782 | 39029 ft | 464 kts | 134° |
| 2026-05-08 16:30 | 44.11535 | 18.16510 | 39017 ft | 462 kts | 134° |
| 2026-05-08 16:30 | 44.07262 | 18.23236 | 39009 ft | 464 kts | 134° |
| 2026-05-08 16:31 | 44.03008 | 18.29917 | 39002 ft | 463 kts | 134° |
| 2026-05-08 16:31 | 43.98735 | 18.36615 | 38999 ft | 464 kts | 134° |
| 2026-05-08 16:32 | 43.94453 | 18.43311 | 38996 ft | 463 kts | 134° |
| 2026-05-08 16:32 | 43.89950 | 18.49666 | 38993 ft | 461 kts | 139° |
| 2026-05-08 16:33 | 43.85363 | 18.55892 | 38983 ft | 460 kts | 139° |
| 2026-05-08 16:33 | 43.80807 | 18.62075 | 38987 ft | 460 kts | 139° |
| 2026-05-08 16:34 | 43.76225 | 18.68279 | 38979 ft | 460 kts | 138° |
| 2026-05-08 16:34 | 43.71644 | 18.74466 | 38982 ft | 460 kts | 138° |
| 2026-05-08 16:35 | 43.67054 | 18.80652 | 38991 ft | 461 kts | 138° |
| 2026-05-08 16:35 | 43.62453 | 18.86839 | 38994 ft | 462 kts | 139° |
| 2026-05-08 16:36 | 43.57878 | 18.92977 | 38983 ft | 462 kts | 139° |
| 2026-05-08 16:36 | 43.53257 | 18.99163 | 38985 ft | 463 kts | 139° |
| 2026-05-08 16:37 | 43.48690 | 19.05264 | 38994 ft | 464 kts | 139° |
| 2026-05-08 16:37 | 43.44049 | 19.11448 | 38999 ft | 465 kts | 139° |
| 2026-05-08 16:38 | 43.39398 | 19.17632 | 39002 ft | 465 kts | 139° |
| 2026-05-08 16:38 | 43.34738 | 19.23815 | 38996 ft | 466 kts | 139° |
| 2026-05-08 16:39 | 43.30088 | 19.29969 | 39009 ft | 466 kts | 139° |
| 2026-05-08 16:39 | 43.25411 | 19.36148 | 39012 ft | 467 kts | 139° |
| 2026-05-08 16:40 | 43.20720 | 19.42329 | 39012 ft | 467 kts | 139° |
| 2026-05-08 16:40 | 43.16026 | 19.48501 | 39008 ft | 467 kts | 139° |
| 2026-05-08 16:41 | 43.11374 | 19.54604 | 39013 ft | 465 kts | 139° |
| 2026-05-08 16:42 | 43.05106 | 19.62805 | 39010 ft | 466 kts | 139° |
| 2026-05-08 16:42 | 43.00451 | 19.68881 | 39013 ft | 465 kts | 139° |
| 2026-05-08 16:43 | 42.95765 | 19.74984 | 39003 ft | 465 kts | 139° |
| 2026-05-08 16:43 | 42.91089 | 19.81059 | 39005 ft | 464 kts | 139° |
| 2026-05-08 16:44 | 42.86400 | 19.87138 | 39007 ft | 464 kts | 139° |
| 2026-05-08 16:44 | 42.81721 | 19.93191 | 39007 ft | 464 kts | 139° |
| 2026-05-08 16:45 | 42.77058 | 19.99210 | 39013 ft | 465 kts | 139° |
| 2026-05-08 16:45 | 42.72625 | 20.05636 | 39018 ft | 467 kts | 131° |
| 2026-05-08 16:46 | 42.68505 | 20.12489 | 39021 ft | 468 kts | 131° |
| 2026-05-08 16:46 | 42.64375 | 20.19319 | 39029 ft | 468 kts | 131° |
| 2026-05-08 16:47 | 42.60219 | 20.26157 | 39033 ft | 469 kts | 131° |
| 2026-05-08 16:47 | 42.56092 | 20.32933 | 39039 ft | 469 kts | 131° |
| 2026-05-08 16:48 | 42.51931 | 20.39745 | 39044 ft | 469 kts | 131° |
| 2026-05-08 16:48 | 42.47757 | 20.46564 | 39047 ft | 469 kts | 132° |
| 2026-05-08 16:49 | 42.43587 | 20.53360 | 39036 ft | 469 kts | 132° |
| 2026-05-08 16:49 | 42.39410 | 20.60154 | 39044 ft | 470 kts | 132° |
| 2026-05-08 16:50 | 42.35216 | 20.66958 | 39051 ft | 470 kts | 132° |
| 2026-05-08 16:50 | 42.31049 | 20.73704 | 39042 ft | 470 kts | 132° |
| 2026-05-08 16:51 | 42.26851 | 20.80484 | 39043 ft | 470 kts | 132° |
| 2026-05-08 16:51 | 42.22634 | 20.87278 | 39048 ft | 471 kts | 132° |
| 2026-05-08 16:52 | 42.18422 | 20.94051 | 39049 ft | 471 kts | 132° |
| 2026-05-08 16:52 | 42.14207 | 21.00812 | 39051 ft | 471 kts | 132° |
| 2026-05-08 16:53 | 42.07488 | 21.10351 | 39042 ft | 469 kts | 139° |
| 2026-05-08 16:53 | 42.02735 | 21.16371 | 39033 ft | 468 kts | 139° |
| 2026-05-08 16:54 | 41.97992 | 21.22388 | 39033 ft | 468 kts | 139° |
| 2026-05-08 16:54 | 41.93276 | 21.28354 | 39031 ft | 468 kts | 139° |
| 2026-05-08 16:55 | 41.88530 | 21.34346 | 39031 ft | 468 kts | 139° |
| 2026-05-08 16:55 | 41.83780 | 21.40329 | 39029 ft | 468 kts | 139° |
| 2026-05-08 16:56 | 41.79030 | 21.46300 | 39029 ft | 468 kts | 139° |
| 2026-05-08 16:56 | 41.74273 | 21.52268 | 39026 ft | 469 kts | 139° |
| 2026-05-08 16:57 | 41.69524 | 21.58211 | 39029 ft | 470 kts | 140° |
| 2026-05-08 16:57 | 41.64735 | 21.64192 | 39042 ft | 471 kts | 140° |
| 2026-05-08 16:58 | 41.59942 | 21.70166 | 39047 ft | 471 kts | 140° |
| 2026-05-08 16:58 | 41.55146 | 21.76129 | 39050 ft | 471 kts | 140° |
| 2026-05-08 16:59 | 41.50347 | 21.82086 | 39040 ft | 470 kts | 140° |
| 2026-05-08 16:59 | 41.45570 | 21.88003 | 39042 ft | 470 kts | 140° |
| 2026-05-08 17:00 | 41.40743 | 21.93967 | 39039 ft | 470 kts | 140° |
| 2026-05-08 17:00 | 41.35977 | 21.99844 | 39039 ft | 470 kts | 140° |
| 2026-05-08 17:01 | 41.31161 | 22.05770 | 39043 ft | 471 kts | 140° |
| 2026-05-08 17:01 | 41.26344 | 22.11685 | 39049 ft | 471 kts | 140° |
| 2026-05-08 17:02 | 41.21525 | 22.17591 | 39051 ft | 471 kts | 140° |
| 2026-05-08 17:02 | 41.16691 | 22.23492 | 39067 ft | 472 kts | 141° |
| 2026-05-08 17:03 | 41.11652 | 22.28979 | 39069 ft | 471 kts | 144° |
| 2026-05-08 17:03 | 41.06558 | 22.34462 | 39075 ft | 472 kts | 144° |
| 2026-05-08 17:04 | 41.01463 | 22.39936 | 39064 ft | 470 kts | 144° |
| 2026-05-08 17:04 | 40.96377 | 22.45387 | 39064 ft | 470 kts | 144° |
| 2026-05-08 17:05 | 40.91285 | 22.50832 | 39064 ft | 469 kts | 144° |
| 2026-05-08 17:05 | 40.86237 | 22.56218 | 39064 ft | 470 kts | 144° |
| 2026-05-08 17:06 | 40.81144 | 22.61641 | 39063 ft | 470 kts | 144° |
| 2026-05-08 17:06 | 40.76046 | 22.67058 | 39063 ft | 470 kts | 144° |
| 2026-05-08 17:07 | 40.70948 | 22.72466 | 39048 ft | 470 kts | 144° |
| 2026-05-08 17:07 | 40.65840 | 22.77873 | 39049 ft | 469 kts | 144° |
| 2026-05-08 17:08 | 40.60781 | 22.83216 | 39047 ft | 469 kts | 145° |
| 2026-05-08 17:08 | 40.55688 | 22.88585 | 39044 ft | 469 kts | 145° |
| 2026-05-08 17:09 | 40.50594 | 22.93944 | 39043 ft | 469 kts | 145° |
| 2026-05-08 17:09 | 40.45550 | 22.99390 | 39043 ft | 471 kts | 140° |
| 2026-05-08 17:10 | 40.40974 | 23.05590 | 39042 ft | 473 kts | 136° |
| 2026-05-08 17:10 | 40.36483 | 23.11828 | 39044 ft | 473 kts | 137° |
| 2026-05-08 17:11 | 40.31950 | 23.18088 | 39049 ft | 473 kts | 137° |
| 2026-05-08 17:11 | 40.27411 | 23.24337 | 39056 ft | 473 kts | 137° |
| 2026-05-08 17:12 | 40.22868 | 23.30578 | 39058 ft | 473 kts | 137° |
| 2026-05-08 17:12 | 40.18317 | 23.36817 | 39059 ft | 474 kts | 137° |
| 2026-05-08 17:13 | 40.13763 | 23.43049 | 39034 ft | 474 kts | 137° |
| 2026-05-08 17:13 | 40.09207 | 23.49270 | 39053 ft | 474 kts | 137° |
| 2026-05-08 17:14 | 40.04664 | 23.55460 | 39047 ft | 474 kts | 137° |
| 2026-05-08 17:14 | 40.00095 | 23.61673 | 39050 ft | 475 kts | 137° |
| 2026-05-08 17:15 | 39.95514 | 23.67889 | 39058 ft | 475 kts | 137° |
| 2026-05-08 17:15 | 39.90928 | 23.74099 | 39057 ft | 476 kts | 137° |
| 2026-05-08 17:16 | 39.86336 | 23.80307 | 39039 ft | 476 kts | 138° |
| 2026-05-08 17:16 | 39.81731 | 23.86517 | 39038 ft | 477 kts | 138° |
| 2026-05-08 17:17 | 39.77114 | 23.92729 | 39044 ft | 478 kts | 138° |
| 2026-05-08 17:17 | 39.72483 | 23.98950 | 39051 ft | 479 kts | 138° |
| 2026-05-08 17:18 | 39.67867 | 24.05137 | 39053 ft | 479 kts | 138° |
| 2026-05-08 17:18 | 39.63222 | 24.11349 | 39057 ft | 480 kts | 138° |
| 2026-05-08 17:19 | 39.58555 | 24.17580 | 39045 ft | 481 kts | 138° |
| 2026-05-08 17:19 | 39.53904 | 24.23775 | 39045 ft | 482 kts | 139° |
| 2026-05-08 17:20 | 39.49222 | 24.29999 | 39052 ft | 482 kts | 139° |
| 2026-05-08 17:20 | 39.44524 | 24.36230 | 39050 ft | 483 kts | 139° |
| 2026-05-08 17:21 | 39.39856 | 24.42409 | 39046 ft | 481 kts | 138° |
| 2026-05-08 17:21 | 39.35182 | 24.48588 | 39038 ft | 480 kts | 138° |
| 2026-05-08 17:22 | 39.30508 | 24.54796 | 39029 ft | 481 kts | 138° |
| 2026-05-08 17:22 | 39.25865 | 24.61018 | 39045 ft | 482 kts | 138° |
| 2026-05-08 17:23 | 39.21207 | 24.67241 | 39051 ft | 481 kts | 138° |
| 2026-05-08 17:23 | 39.16579 | 24.73404 | 39041 ft | 481 kts | 138° |
| 2026-05-08 17:24 | 39.11911 | 24.79605 | 39053 ft | 481 kts | 138° |
| 2026-05-08 17:24 | 39.07224 | 24.85762 | 39052 ft | 480 kts | 139° |
| 2026-05-08 17:25 | 39.02508 | 24.91860 | 39047 ft | 480 kts | 139° |
| 2026-05-08 17:25 | 38.97797 | 24.97954 | 39034 ft | 480 kts | 139° |
| 2026-05-08 17:26 | 38.93116 | 25.04002 | 39055 ft | 480 kts | 139° |
| 2026-05-08 17:26 | 38.88400 | 25.10084 | 39061 ft | 481 kts | 139° |
| 2026-05-08 17:27 | 38.83671 | 25.16173 | 39066 ft | 481 kts | 139° |
| 2026-05-08 17:27 | 38.78937 | 25.22256 | 39070 ft | 481 kts | 139° |
| 2026-05-08 17:28 | 38.74201 | 25.28330 | 39075 ft | 482 kts | 139° |
| 2026-05-08 17:28 | 38.70264 | 25.33369 | 39033 ft | 482 kts | 140° |
| 2026-05-08 17:29 | 38.64761 | 25.40401 | 39069 ft | 480 kts | 140° |
| 2026-05-08 17:29 | 38.60027 | 25.46434 | 39070 ft | 480 kts | 140° |
| 2026-05-08 17:30 | 38.56083 | 25.51452 | 39070 ft | 480 kts | 140° |
| 2026-05-08 17:30 | 38.51339 | 25.57479 | 39075 ft | 480 kts | 140° |
| 2026-05-08 17:31 | 38.46598 | 25.63488 | 39075 ft | 480 kts | 140° |
| 2026-05-08 17:31 | 38.41857 | 25.69487 | 39086 ft | 480 kts | 140° |
| 2026-05-08 17:32 | 38.37098 | 25.75497 | 39081 ft | 482 kts | 140° |
| 2026-05-08 17:32 | 38.32341 | 25.81515 | 39077 ft | 481 kts | 140° |
| 2026-05-08 17:33 | 38.27619 | 25.87484 | 39081 ft | 482 kts | 140° |
| 2026-05-08 17:33 | 38.22743 | 25.93289 | 39083 ft | 478 kts | 144° |
| 2026-05-08 17:34 | 38.17720 | 25.98850 | 39077 ft | 478 kts | 144° |
| 2026-05-08 17:34 | 38.12702 | 26.04408 | 39083 ft | 478 kts | 144° |
| 2026-05-08 17:35 | 38.07682 | 26.09959 | 39075 ft | 478 kts | 144° |
| 2026-05-08 17:35 | 38.02658 | 26.15503 | 39083 ft | 479 kts | 144° |
| 2026-05-08 17:36 | 37.97658 | 26.21009 | 39087 ft | 479 kts | 144° |
| 2026-05-08 17:36 | 37.92618 | 26.26548 | 39089 ft | 479 kts | 144° |
| 2026-05-08 17:37 | 37.87567 | 26.32090 | 39098 ft | 480 kts | 144° |
| 2026-05-08 17:37 | 37.82512 | 26.37616 | 39104 ft | 480 kts | 145° |
| 2026-05-08 17:38 | 37.77450 | 26.43129 | 39108 ft | 480 kts | 144° |
| 2026-05-08 17:38 | 37.72388 | 26.48633 | 39106 ft | 480 kts | 145° |
| 2026-05-08 17:39 | 37.67345 | 26.54109 | 39113 ft | 481 kts | 144° |
| 2026-05-08 17:39 | 37.62276 | 26.59617 | 39111 ft | 481 kts | 145° |
| 2026-05-08 17:40 | 37.57196 | 26.65131 | 39115 ft | 481 kts | 145° |
| 2026-05-08 17:40 | 37.52121 | 26.70626 | 39115 ft | 481 kts | 145° |
| 2026-05-08 17:41 | 37.47038 | 26.76119 | 39116 ft | 481 kts | 145° |
| 2026-05-08 17:41 | 37.41955 | 26.81602 | 39117 ft | 481 kts | 145° |
| 2026-05-08 17:42 | 37.36923 | 26.87187 | 39098 ft | 483 kts | 142° |
| 2026-05-08 17:42 | 37.32123 | 26.93030 | 39117 ft | 483 kts | 141° |
| 2026-05-08 17:43 | 37.27279 | 26.98889 | 39119 ft | 482 kts | 141° |
| 2026-05-08 17:43 | 37.22416 | 27.04695 | 39105 ft | 481 kts | 141° |
| 2026-05-08 17:44 | 37.17586 | 27.10438 | 39105 ft | 481 kts | 142° |
| 2026-05-08 17:44 | 37.12725 | 27.16206 | 39100 ft | 481 kts | 142° |
| 2026-05-08 17:45 | 37.07864 | 27.21963 | 39100 ft | 480 kts | 141° |
| 2026-05-08 17:45 | 37.03008 | 27.27705 | 39105 ft | 480 kts | 141° |
| 2026-05-08 17:46 | 36.98140 | 27.33451 | 39111 ft | 480 kts | 141° |
| 2026-05-08 17:46 | 36.93303 | 27.39150 | 39090 ft | 480 kts | 142° |
| 2026-05-08 17:47 | 36.88432 | 27.44879 | 39103 ft | 480 kts | 142° |
| 2026-05-08 17:47 | 36.84387 | 27.49627 | 39105 ft | 480 kts | 142° |
| 2026-05-08 17:48 | 36.78695 | 27.56298 | 39113 ft | 479 kts | 142° |
| 2026-05-08 17:48 | 36.73828 | 27.61988 | 39117 ft | 479 kts | 142° |
| 2026-05-08 17:49 | 36.68992 | 27.67634 | 39101 ft | 480 kts | 142° |
| 2026-05-08 17:49 | 36.64117 | 27.73316 | 39115 ft | 480 kts | 142° |
| 2026-05-08 17:50 | 36.59241 | 27.78989 | 39101 ft | 479 kts | 142° |
| 2026-05-08 17:50 | 36.54361 | 27.84654 | 39089 ft | 479 kts | 142° |
| 2026-05-08 17:51 | 36.49475 | 27.90316 | 39084 ft | 480 kts | 142° |
| 2026-05-08 17:51 | 36.44591 | 27.95966 | 39077 ft | 480 kts | 142° |
| 2026-05-08 17:52 | 36.39736 | 28.01573 | 39076 ft | 480 kts | 142° |
| 2026-05-08 17:52 | 36.35247 | 28.07742 | 39064 ft | 488 kts | 128° |
| 2026-05-08 17:53 | 36.33503 | 28.11375 | 39062 ft | 492 kts | 119° |
| 2026-05-08 17:53 | 36.31119 | 28.19370 | 39092 ft | 496 kts | 109° |
| 2026-05-08 17:54 | 36.29051 | 28.27541 | 39096 ft | 496 kts | 110° |
| 2026-05-08 17:54 | 36.26972 | 28.35655 | 39102 ft | 497 kts | 110° |
| 2026-05-08 17:55 | 36.24867 | 28.43831 | 39094 ft | 498 kts | 110° |
| 2026-05-08 17:55 | 36.22752 | 28.52018 | 39101 ft | 499 kts | 110° |
| 2026-05-08 17:56 | 36.20620 | 28.60217 | 39107 ft | 500 kts | 110° |
| 2026-05-08 17:56 | 36.18481 | 28.68420 | 39103 ft | 501 kts | 110° |
| 2026-05-08 17:57 | 36.16331 | 28.76642 | 39104 ft | 502 kts | 110° |
| 2026-05-08 17:57 | 36.14181 | 28.84838 | 39113 ft | 504 kts | 110° |
| 2026-05-08 17:58 | 36.12008 | 28.93092 | 39121 ft | 504 kts | 110° |
| 2026-05-08 17:58 | 36.09828 | 29.01349 | 39108 ft | 506 kts | 110° |
| 2026-05-08 17:59 | 36.07636 | 29.09625 | 39108 ft | 506 kts | 110° |
| 2026-05-08 17:59 | 36.05441 | 29.17888 | 39111 ft | 506 kts | 110° |
| 2026-05-08 18:00 | 36.03240 | 29.26146 | 39105 ft | 506 kts | 110° |
| 2026-05-08 18:00 | 35.99927 | 29.38523 | 39124 ft | 509 kts | 110° |
| 2026-05-08 18:01 | 35.97706 | 29.46797 | 39109 ft | 506 kts | 110° |
| 2026-05-08 18:01 | 35.95482 | 29.55053 | 39106 ft | 507 kts | 110° |
| 2026-05-08 18:02 | 35.93623 | 29.61960 | 39109 ft | 506 kts | 110° |
| 2026-05-08 18:02 | 35.91043 | 29.71553 | 39107 ft | 506 kts | 110° |
| 2026-05-08 18:03 | 35.88818 | 29.79794 | 39107 ft | 506 kts | 110° |
| 2026-05-08 18:03 | 35.86598 | 29.87988 | 39106 ft | 506 kts | 110° |
| 2026-05-08 18:04 | 35.84358 | 29.96231 | 39105 ft | 506 kts | 110° |
| 2026-05-08 18:04 | 35.82155 | 30.04472 | 39104 ft | 506 kts | 108° |
| 2026-05-08 18:05 | 35.80096 | 30.12772 | 39101 ft | 506 kts | 108° |
| 2026-05-08 18:05 | 35.78023 | 30.21068 | 39096 ft | 507 kts | 108° |
| 2026-05-08 18:06 | 35.75926 | 30.29370 | 39100 ft | 507 kts | 108° |
| 2026-05-08 18:06 | 35.73821 | 30.37656 | 39103 ft | 508 kts | 108° |
| 2026-05-08 18:07 | 35.71717 | 30.45905 | 39103 ft | 508 kts | 108° |
| 2026-05-08 18:07 | 35.69593 | 30.54216 | 39106 ft | 509 kts | 108° |
| 2026-05-08 18:08 | 35.67464 | 30.62516 | 39112 ft | 509 kts | 108° |
| 2026-05-08 18:08 | 35.65321 | 30.70844 | 39117 ft | 510 kts | 108° |
| 2026-05-08 18:09 | 35.63175 | 30.79158 | 38802 ft | 509 kts | 108° |
| 2026-05-08 18:09 | 35.61977 | 30.83246 | 38442 ft | 509 kts | 115° |
| 2026-05-08 18:09 | 35.60431 | 30.87167 | 37741 ft | 509 kts | 122° |
| 2026-05-08 18:10 | 35.58586 | 30.90810 | 37071 ft | 507 kts | 127° |
| 2026-05-08 18:10 | 35.56637 | 30.94414 | 36388 ft | 506 kts | 127° |
| 2026-05-08 18:10 | 35.54699 | 30.98021 | 35688 ft | 506 kts | 126° |
| 2026-05-08 18:10 | 35.52762 | 31.01633 | 34976 ft | 507 kts | 126° |
| 2026-05-08 18:11 | 35.50821 | 31.05253 | 34237 ft | 509 kts | 126° |
| 2026-05-08 18:11 | 35.48864 | 31.08900 | 33403 ft | 511 kts | 126° |
| 2026-05-08 18:11 | 35.46906 | 31.12545 | 32627 ft | 510 kts | 126° |
| 2026-05-08 18:11 | 35.44946 | 31.16187 | 31738 ft | 513 kts | 126° |
| 2026-05-08 18:12 | 35.42993 | 31.19810 | 30997 ft | 513 kts | 125° |
| 2026-05-08 18:12 | 35.41038 | 31.23437 | 30393 ft | 508 kts | 125° |
| 2026-05-08 18:12 | 35.39090 | 31.27045 | 29684 ft | 505 kts | 124° |
| 2026-05-08 18:12 | 35.37162 | 31.30613 | 29035 ft | 500 kts | 124° |
| 2026-05-08 18:13 | 35.35249 | 31.34151 | 28380 ft | 495 kts | 124° |
| 2026-05-08 18:13 | 35.33352 | 31.37657 | 27730 ft | 491 kts | 124° |
| 2026-05-08 18:13 | 35.31471 | 31.41130 | 27086 ft | 487 kts | 124° |
| 2026-05-08 18:13 | 35.29607 | 31.44567 | 26440 ft | 483 kts | 124° |
| 2026-05-08 18:14 | 35.27752 | 31.47983 | 25784 ft | 480 kts | 124° |
| 2026-05-08 18:14 | 35.25933 | 31.51331 | 25131 ft | 477 kts | 124° |
| 2026-05-08 18:14 | 35.24096 | 31.54707 | 24509 ft | 473 kts | 124° |
| 2026-05-08 18:14 | 35.22270 | 31.58061 | 23875 ft | 470 kts | 124° |
| 2026-05-08 18:15 | 35.20457 | 31.61389 | 23177 ft | 467 kts | 124° |
| 2026-05-08 18:15 | 35.18667 | 31.64672 | 22560 ft | 461 kts | 124° |
| 2026-05-08 18:15 | 35.16893 | 31.67921 | 21925 ft | 456 kts | 124° |
| 2026-05-08 18:15 | 35.15137 | 31.71134 | 21296 ft | 452 kts | 124° |
| 2026-05-08 18:16 | 35.13422 | 31.74271 | 20678 ft | 447 kts | 124° |
| 2026-05-08 18:16 | 35.11698 | 31.77420 | 20053 ft | 443 kts | 124° |
| 2026-05-08 18:16 | 35.09992 | 31.80534 | 19429 ft | 439 kts | 124° |
| 2026-05-08 18:16 | 35.08306 | 31.83610 | 18914 ft | 433 kts | 124° |
| 2026-05-08 18:17 | 35.06640 | 31.86646 | 18279 ft | 429 kts | 124° |
| 2026-05-08 18:17 | 35.04987 | 31.89657 | 17611 ft | 425 kts | 124° |
| 2026-05-08 18:17 | 35.03343 | 31.92647 | 16956 ft | 420 kts | 124° |
| 2026-05-08 18:17 | 35.02270 | 31.94599 | 16562 ft | 417 kts | 124° |
| 2026-05-08 18:18 | 35.00127 | 31.98493 | 15775 ft | 410 kts | 124° |
| 2026-05-08 18:18 | 34.99075 | 32.00402 | 15386 ft | 407 kts | 124° |
| 2026-05-08 18:18 | 34.97502 | 32.03257 | 14793 ft | 403 kts | 124° |
| 2026-05-08 18:18 | 34.95945 | 32.06078 | 14209 ft | 400 kts | 124° |
| 2026-05-08 18:19 | 34.94398 | 32.08881 | 13603 ft | 396 kts | 118° |
| 2026-05-08 18:19 | 34.92969 | 32.11722 | 13044 ft | 390 kts | 121° |
| 2026-05-08 18:19 | 34.91344 | 32.14331 | 12510 ft | 384 kts | 129° |
| 2026-05-08 18:19 | 34.89616 | 32.16804 | 11958 ft | 380 kts | 129° |
| 2026-05-08 18:20 | 34.87898 | 32.19223 | 11405 ft | 376 kts | 131° |
| 2026-05-08 18:20 | 34.86207 | 32.21578 | 10876 ft | 372 kts | 130° |
| 2026-05-08 18:20 | 34.84538 | 32.23934 | 10595 ft | 361 kts | 130° |
| 2026-05-08 18:20 | 34.82938 | 32.26215 | 10452 ft | 346 kts | 129° |
| 2026-05-08 18:21 | 34.81413 | 32.28403 | 10319 ft | 332 kts | 129° |
| 2026-05-08 18:21 | 34.79949 | 32.30509 | 10197 ft | 318 kts | 129° |
| 2026-05-08 18:21 | 34.78555 | 32.32514 | 9855 ft | 306 kts | 129° |
| 2026-05-08 18:21 | 34.77193 | 32.34478 | 9262 ft | 302 kts | 129° |
| 2026-05-08 18:22 | 34.75851 | 32.36417 | 8811 ft | 294 kts | 129° |
| 2026-05-08 18:22 | 34.74554 | 32.38296 | 8290 ft | 289 kts | 128° |
| 2026-05-08 18:22 | 34.73284 | 32.40131 | 7952 ft | 278 kts | 128° |
| 2026-05-08 18:22 | 34.72060 | 32.41898 | 7590 ft | 269 kts | 128° |
| 2026-05-08 18:23 | 34.70847 | 32.43653 | 6849 ft | 276 kts | 128° |
| 2026-05-08 18:23 | 34.69595 | 32.45460 | 6136 ft | 281 kts | 128° |
| 2026-05-08 18:23 | 34.68348 | 32.47257 | 5632 ft | 276 kts | 128° |
| 2026-05-08 18:23 | 34.67138 | 32.48999 | 5203 ft | 271 kts | 128° |
| 2026-05-08 18:24 | 34.65921 | 32.50751 | 4598 ft | 272 kts | 128° |
| 2026-05-08 18:24 | 34.64696 | 32.52516 | 3978 ft | 274 kts | 127° |
| 2026-05-08 18:24 | 34.63465 | 32.54293 | 3394 ft | 274 kts | 128° |
| 2026-05-08 18:24 | 34.62260 | 32.56028 | 3100 ft | 262 kts | 128° |
| 2026-05-08 18:25 | 34.61123 | 32.57657 | 2994 ft | 243 kts | 128° |
| 2026-05-08 18:25 | 34.60073 | 32.59157 | 2990 ft | 224 kts | 127° |
| 2026-05-08 18:25 | 34.59101 | 32.60550 | 2988 ft | 208 kts | 125° |
| 2026-05-08 18:25 | 34.58403 | 32.62018 | 3010 ft | 202 kts | 105° |
| 2026-05-08 18:26 | 34.58145 | 32.63678 | 2988 ft | 198 kts | 87° |
| 2026-05-08 18:26 | 34.58326 | 32.65315 | 2992 ft | 196 kts | 70° |
| 2026-05-08 18:26 | 34.58897 | 32.66788 | 2892 ft | 193 kts | 52° |
| 2026-05-08 18:26 | 34.59788 | 32.67955 | 2774 ft | 189 kts | 36° |
| 2026-05-08 18:27 | 34.60923 | 32.68749 | 2650 ft | 189 kts | 19° |
| 2026-05-08 18:27 | 34.61783 | 32.69037 | 2582 ft | 190 kts | 9° |
| 2026-05-08 18:27 | 34.63445 | 32.68975 | 2529 ft | 173 kts | 348° |
| 2026-05-08 18:27 | 34.64532 | 32.68482 | 2437 ft | 162 kts | 333° |
| 2026-05-08 18:28 | 34.65422 | 32.67718 | 2322 ft | 153 kts | 319° |
| 2026-05-08 18:28 | 34.66085 | 32.66752 | 2261 ft | 153 kts | 304° |
| 2026-05-08 18:28 | 34.66579 | 32.65605 | 2191 ft | 150 kts | 295° |
| 2026-05-08 18:28 | 34.66955 | 32.64458 | 2130 ft | 141 kts | 292° |
| 2026-05-08 18:29 | 34.67296 | 32.63348 | 2082 ft | 141 kts | 292° |
| 2026-05-08 18:29 | 34.67633 | 32.62243 | 2018 ft | 138 kts | 292° |
| 2026-05-08 18:29 | 34.67966 | 32.61148 | 1899 ft | 137 kts | 294° |
| 2026-05-08 18:29 | 34.68291 | 32.60079 | 1743 ft | 137 kts | 294° |
| 2026-05-08 18:30 | 34.68625 | 32.58982 | 1580 ft | 138 kts | 294° |
| 2026-05-08 18:30 | 34.68952 | 32.57896 | 1400 ft | 134 kts | 295° |
| 2026-05-08 18:30 | 34.69268 | 32.56826 | 1231 ft | 135 kts | 289° |
| 2026-05-08 18:30 | 34.69563 | 32.55741 | 1048 ft | 135 kts | 292° |
| 2026-05-08 18:31 | 34.69909 | 32.54689 | 886 ft | 134 kts | 295° |
| 2026-05-08 18:31 | 34.70245 | 32.53641 | 671 ft | 133 kts | 290° |
| 2026-05-08 18:31 | 34.70556 | 32.52547 | 465 ft | 139 kts | 291° |
| 2026-05-08 18:31 | 34.70888 | 32.51461 | 329 ft | 136 kts | 293° |
| 2026-05-08 18:32 | 34.71231 | 32.50374 | 134 ft | 139 kts | 291° |
| 2026-05-08 18:32 | 34.71571 | 32.49294 | 44 ft | 132 kts | 288° |
| 2026-05-08 18:32 | 34.71796 | 32.48527 | 44 ft | 53 kts | 291° |
| 2026-05-08 18:32 | 34.71899 | 32.48205 | 44 ft | 44 kts | 292° |
| 2026-05-08 18:33 | 34.72016 | 32.47844 | 45 ft | 28 kts | 288° |
| 2026-05-08 18:33 | 34.72090 | 32.47590 | 42 ft | 36 kts | 290° |
| 2026-05-08 18:33 | 34.72180 | 32.47301 | 44 ft | 20 kts | 291° |
| 2026-05-08 18:33 | 34.72241 | 32.47146 | 43 ft | 19 kts | 328° |
| 2026-05-08 18:34 | 34.72344 | 32.47178 | 43 ft | 17 kts | 26° |
| 2026-05-08 18:34 | 34.72355 | 32.47294 | 43 ft | 17 kts | 105° |
| 2026-05-08 18:34 | 34.72314 | 32.47450 | 43 ft | 22 kts | 109° |
| 2026-05-08 18:34 | 34.72257 | 32.47634 | 42 ft | 25 kts | 114° |
| 2026-05-08 18:35 | 34.72221 | 32.47737 | 43 ft | 5 kts | 112° |
| 2026-05-08 18:35 | 34.72199 | 32.47806 | 43 ft | 13 kts | 110° |
| 2026-05-08 18:35 | 34.72159 | 32.47938 | 41 ft | 21 kts | 110° |
| 2026-05-08 18:35 | 34.72101 | 32.48128 | 43 ft | 27 kts | 111° |
| 2026-05-08 18:36 | 34.72056 | 32.48275 | 43 ft | 19 kts | 110° |
| 2026-05-08 18:36 | 34.72005 | 32.48445 | 43 ft | 12 kts | 115° |
| 2026-05-08 18:36 | 34.71917 | 32.48469 | 43 ft | 18 kts | 194° |
| 2026-05-08 18:36 | 34.71797 | 32.48415 | 44 ft | 12 kts | 200° |
| 2026-05-08 18:37 | 34.71699 | 32.48385 | 43 ft | 17 kts | 167° |
| 2026-05-08 18:37 | 34.71638 | 32.48503 | 43 ft | 18 kts | 110° |
| 2026-05-08 18:37 | 34.71593 | 32.48646 | 42 ft | 18 kts | 110° |
| 2026-05-08 18:37 | 34.71571 | 32.48716 | 43 ft | 2 kts | 110° |
| 2026-05-08 18:38 | 34.71562 | 32.48747 | 43 ft | 6 kts | 110° |
| 2026-05-08 18:38 | 34.71544 | 32.48809 | 43 ft | 10 kts | 110° |
| 2026-05-08 18:38 | 34.71517 | 32.48894 | 43 ft | 10 kts | 121° |
| 2026-05-08 18:38 | 34.71497 | 32.48895 | 43 ft | 2 kts | 236° |
| 2026-05-08 18:39 | 34.71483 | 32.48867 | 43 ft | 6 kts | 240° |
| 2026-05-08 18:39 | 34.71467 | 32.48836 | 43 ft | 0 kts | 225° |
| 2026-05-08 18:39 | 34.71464 | 32.48837 | 43 ft | 1 kts | 191° |
| 2026-05-08 18:39 | 34.71427 | 32.48844 | 42 ft | 9 kts | 161° |
| 2026-05-08 18:40 | 34.71402 | 32.48857 | 42 ft | 2 kts | 156° |
| 2026-05-08 18:40 | 34.71385 | 32.48867 | 43 ft | 0 kts | 155° |
| 2026-05-08 18:40 | 34.71379 | 32.48871 | 43 ft | 1 kts | 155° |
| 2026-05-08 18:40 | 34.71375 | 32.48873 | 43 ft | 0 kts | 155° |